sensor_id;sensor_type;location;lat;lon;timestamp;P1;durP1;ratioP1;P2;durP2;ratioP2
34234;SDS011;20500;49.856;20.290;2022-09-13T00:01:52;10.30;;;5.20;;
34234;SDS011;20500;49.856;20.290;2022-09-13T00:04:58;12.50;;;5.80;;
34234;SDS011;20500;49.856;20.290;2022-09-13T00:08:05;12.10;;;5.90;;
34234;SDS011;20500;49.856;20.290;2022-09-13T00:11:15;13.20;;;6.10;;
34234;SDS011;20500;49.856;20.290;2022-09-13T00:14:23;11.50;;;5.30;;
34234;SDS011;20500;49.856;20.290;2022-09-13T00:17:29;10.90;;;5.50;;
34234;SDS011;20500;49.856;20.290;2022-09-13T00:20:35;11.90;;;5.40;;
34234;SDS011;20500;49.856;20.290;2022-09-13T00:26:48;11.90;;;5.10;;
34234;SDS011;20500;49.856;20.290;2022-09-13T00:29:54;13.50;;;5.00;;
34234;SDS011;20500;49.856;20.290;2022-09-13T00:33:00;11.90;;;5.50;;
34234;SDS011;20500;49.856;20.290;2022-09-13T00:36:07;11.30;;;5.70;;
34234;SDS011;20500;49.856;20.290;2022-09-13T00:39:14;13.70;;;5.50;;
34234;SDS011;20500;49.856;20.290;2022-09-13T00:42:25;11.90;;;5.30;;
34234;SDS011;20500;49.856;20.290;2022-09-13T00:45:34;12.90;;;5.60;;
34234;SDS011;20500;49.856;20.290;2022-09-13T00:48:42;11.50;;;5.00;;
34234;SDS011;20500;49.856;20.290;2022-09-13T00:51:51;11.80;;;5.70;;
34234;SDS011;20500;49.856;20.290;2022-09-13T00:55:02;10.10;;;4.80;;
34234;SDS011;20500;49.856;20.290;2022-09-13T00:58:15;13.10;;;5.50;;
34234;SDS011;20500;49.856;20.290;2022-09-13T01:01:28;9.90;;;4.50;;
34234;SDS011;20500;49.856;20.290;2022-09-13T01:04:40;10.30;;;4.90;;
34234;SDS011;20500;49.856;20.290;2022-09-13T01:07:47;11.20;;;4.50;;
34234;SDS011;20500;49.856;20.290;2022-09-13T01:10:53;11.90;;;4.70;;
34234;SDS011;20500;49.856;20.290;2022-09-13T01:14:03;11.60;;;4.80;;
34234;SDS011;20500;49.856;20.290;2022-09-13T01:17:10;10.50;;;4.70;;
34234;SDS011;20500;49.856;20.290;2022-09-13T01:20:17;10.10;;;4.50;;
34234;SDS011;20500;49.856;20.290;2022-09-13T01:23:31;11.20;;;4.70;;
34234;SDS011;20500;49.856;20.290;2022-09-13T01:26:58;9.00;;;4.30;;
34234;SDS011;20500;49.856;20.290;2022-09-13T01:30:28;8.90;;;3.80;;
34234;SDS011;20500;49.856;20.290;2022-09-13T01:33:41;9.90;;;4.10;;
34234;SDS011;20500;49.856;20.290;2022-09-13T01:37:01;9.80;;;4.10;;
34234;SDS011;20500;49.856;20.290;2022-09-13T01:40:25;10.30;;;4.40;;
34234;SDS011;20500;49.856;20.290;2022-09-13T01:43:45;10.10;;;4.40;;
34234;SDS011;20500;49.856;20.290;2022-09-13T01:47:02;11.00;;;5.00;;
34234;SDS011;20500;49.856;20.290;2022-09-13T01:50:14;10.60;;;5.30;;
34234;SDS011;20500;49.856;20.290;2022-09-13T01:53:31;12.00;;;5.40;;
34234;SDS011;20500;49.856;20.290;2022-09-13T01:56:44;10.60;;;4.80;;
34234;SDS011;20500;49.856;20.290;2022-09-13T01:59:59;11.10;;;5.30;;
34234;SDS011;20500;49.856;20.290;2022-09-13T02:03:10;11.90;;;6.10;;
34234;SDS011;20500;49.856;20.290;2022-09-13T02:06:20;11.20;;;5.80;;
34234;SDS011;20500;49.856;20.290;2022-09-13T02:09:31;14.00;;;6.00;;
34234;SDS011;20500;49.856;20.290;2022-09-13T02:12:41;13.90;;;6.70;;
34234;SDS011;20500;49.856;20.290;2022-09-13T02:15:49;14.00;;;6.60;;
34234;SDS011;20500;49.856;20.290;2022-09-13T02:19:01;12.20;;;6.50;;
34234;SDS011;20500;49.856;20.290;2022-09-13T02:22:10;11.00;;;5.70;;
34234;SDS011;20500;49.856;20.290;2022-09-13T02:25:19;10.90;;;4.90;;
34234;SDS011;20500;49.856;20.290;2022-09-13T02:28:30;11.40;;;5.70;;
34234;SDS011;20500;49.856;20.290;2022-09-13T02:31:41;12.70;;;5.30;;
34234;SDS011;20500;49.856;20.290;2022-09-13T02:34:51;11.80;;;5.40;;
34234;SDS011;20500;49.856;20.290;2022-09-13T02:38:05;11.30;;;5.90;;
34234;SDS011;20500;49.856;20.290;2022-09-13T02:41:18;11.50;;;5.90;;
34234;SDS011;20500;49.856;20.290;2022-09-13T02:44:31;10.20;;;5.20;;
34234;SDS011;20500;49.856;20.290;2022-09-13T02:47:42;11.10;;;4.80;;
34234;SDS011;20500;49.856;20.290;2022-09-13T02:50:57;10.00;;;4.80;;
34234;SDS011;20500;49.856;20.290;2022-09-13T02:54:12;12.90;;;4.70;;
34234;SDS011;20500;49.856;20.290;2022-09-13T02:57:27;12.40;;;4.60;;
34234;SDS011;20500;49.856;20.290;2022-09-13T03:00:37;11.20;;;4.30;;
34234;SDS011;20500;49.856;20.290;2022-09-13T03:03:44;10.90;;;4.80;;
34234;SDS011;20500;49.856;20.290;2022-09-13T03:06:50;9.50;;;4.30;;
34234;SDS011;20500;49.856;20.290;2022-09-13T03:09:57;10.10;;;4.60;;
34234;SDS011;20500;49.856;20.290;2022-09-13T03:13:17;9.80;;;4.50;;
34234;SDS011;20500;49.856;20.290;2022-09-13T03:16:44;10.50;;;4.80;;
34234;SDS011;20500;49.856;20.290;2022-09-13T03:20:02;9.90;;;4.30;;
34234;SDS011;20500;49.856;20.290;2022-09-13T03:23:20;9.70;;;4.40;;
34234;SDS011;20500;49.856;20.290;2022-09-13T03:26:40;9.70;;;4.40;;
34234;SDS011;20500;49.856;20.290;2022-09-13T03:29:54;9.60;;;4.20;;
34234;SDS011;20500;49.856;20.290;2022-09-13T03:33:07;9.60;;;4.40;;
34234;SDS011;20500;49.856;20.290;2022-09-13T03:36:23;11.40;;;5.40;;
34234;SDS011;20500;49.856;20.290;2022-09-13T03:39:39;12.90;;;6.00;;
34234;SDS011;20500;49.856;20.290;2022-09-13T03:42:51;13.70;;;6.50;;
34234;SDS011;20500;49.856;20.290;2022-09-13T03:46:05;12.10;;;6.60;;
34234;SDS011;20500;49.856;20.290;2022-09-13T03:49:15;12.60;;;6.30;;
34234;SDS011;20500;49.856;20.290;2022-09-13T03:52:25;12.40;;;6.60;;
34234;SDS011;20500;49.856;20.290;2022-09-13T03:55:32;12.70;;;7.00;;
34234;SDS011;20500;49.856;20.290;2022-09-13T03:58:42;13.30;;;7.40;;
34234;SDS011;20500;49.856;20.290;2022-09-13T04:01:48;14.30;;;7.40;;
34234;SDS011;20500;49.856;20.290;2022-09-13T04:04:54;14.40;;;8.20;;
34234;SDS011;20500;49.856;20.290;2022-09-13T04:08:00;11.30;;;6.50;;
34234;SDS011;20500;49.856;20.290;2022-09-13T04:11:08;11.70;;;6.30;;
34234;SDS011;20500;49.856;20.290;2022-09-13T04:17:19;12.20;;;6.80;;
34234;SDS011;20500;49.856;20.290;2022-09-13T04:20:25;13.50;;;6.70;;
34234;SDS011;20500;49.856;20.290;2022-09-13T04:26:36;11.90;;;6.20;;
34234;SDS011;20500;49.856;20.290;2022-09-13T04:29:41;13.50;;;6.80;;
34234;SDS011;20500;49.856;20.290;2022-09-13T04:32:47;11.20;;;5.20;;
34234;SDS011;20500;49.856;20.290;2022-09-13T04:35:58;11.80;;;4.70;;
34234;SDS011;20500;49.856;20.290;2022-09-13T04:39:04;9.80;;;4.90;;
34234;SDS011;20500;49.856;20.290;2022-09-13T04:42:10;10.40;;;4.70;;
34234;SDS011;20500;49.856;20.290;2022-09-13T04:45:16;10.00;;;4.60;;
34234;SDS011;20500;49.856;20.290;2022-09-13T04:51:27;12.10;;;4.80;;
34234;SDS011;20500;49.856;20.290;2022-09-13T04:54:33;10.60;;;4.90;;
34234;SDS011;20500;49.856;20.290;2022-09-13T04:57:39;12.40;;;5.20;;
34234;SDS011;20500;49.856;20.290;2022-09-13T05:00:45;11.00;;;5.00;;
34234;SDS011;20500;49.856;20.290;2022-09-13T05:03:53;11.80;;;5.40;;
34234;SDS011;20500;49.856;20.290;2022-09-13T05:06:59;12.30;;;5.90;;
34234;SDS011;20500;49.856;20.290;2022-09-13T05:10:06;10.20;;;5.00;;
34234;SDS011;20500;49.856;20.290;2022-09-13T05:13:15;13.60;;;5.80;;
34234;SDS011;20500;49.856;20.290;2022-09-13T05:16:21;11.00;;;5.30;;
34234;SDS011;20500;49.856;20.290;2022-09-13T05:19:28;11.00;;;5.30;;
34234;SDS011;20500;49.856;20.290;2022-09-13T05:22:34;10.90;;;5.60;;
34234;SDS011;20500;49.856;20.290;2022-09-13T05:25:40;14.10;;;6.90;;
34234;SDS011;20500;49.856;20.290;2022-09-13T05:28:46;11.60;;;6.30;;
34234;SDS011;20500;49.856;20.290;2022-09-13T05:34:56;12.00;;;6.00;;
34234;SDS011;20500;49.856;20.290;2022-09-13T05:38:02;11.50;;;6.10;;
34234;SDS011;20500;49.856;20.290;2022-09-13T05:41:08;12.70;;;6.50;;
34234;SDS011;20500;49.856;20.290;2022-09-13T05:44:14;13.10;;;7.30;;
34234;SDS011;20500;49.856;20.290;2022-09-13T05:47:20;14.70;;;7.40;;
34234;SDS011;20500;49.856;20.290;2022-09-13T05:50:26;12.40;;;7.70;;
34234;SDS011;20500;49.856;20.290;2022-09-13T05:53:52;12.50;;;7.30;;
34234;SDS011;20500;49.856;20.290;2022-09-13T05:56:59;12.80;;;7.00;;
34234;SDS011;20500;49.856;20.290;2022-09-13T06:03:11;14.40;;;8.70;;
34234;SDS011;20500;49.856;20.290;2022-09-13T06:06:17;17.70;;;11.30;;
34234;SDS011;20500;49.856;20.290;2022-09-13T06:09:24;14.60;;;8.90;;
34234;SDS011;20500;49.856;20.290;2022-09-13T06:12:30;13.00;;;7.90;;
34234;SDS011;20500;49.856;20.290;2022-09-13T06:15:36;15.50;;;9.60;;
34234;SDS011;20500;49.856;20.290;2022-09-13T06:18:45;18.50;;;11.50;;
34234;SDS011;20500;49.856;20.290;2022-09-13T06:21:52;16.70;;;10.70;;
34234;SDS011;20500;49.856;20.290;2022-09-13T06:24:58;15.20;;;9.60;;
34234;SDS011;20500;49.856;20.290;2022-09-13T06:28:04;22.10;;;14.80;;
34234;SDS011;20500;49.856;20.290;2022-09-13T06:31:10;13.40;;;8.00;;
34234;SDS011;20500;49.856;20.290;2022-09-13T06:34:17;13.60;;;8.70;;
34234;SDS011;20500;49.856;20.290;2022-09-13T06:37:24;16.80;;;11.60;;
34234;SDS011;20500;49.856;20.290;2022-09-13T06:40:30;24.00;;;15.20;;
34234;SDS011;20500;49.856;20.290;2022-09-13T06:46:41;19.00;;;12.10;;
34234;SDS011;20500;49.856;20.290;2022-09-13T06:49:47;17.40;;;11.00;;
34234;SDS011;20500;49.856;20.290;2022-09-13T06:52:53;20.70;;;13.50;;
34234;SDS011;20500;49.856;20.290;2022-09-13T06:56:04;17.50;;;12.10;;
34234;SDS011;20500;49.856;20.290;2022-09-13T06:59:13;21.30;;;14.60;;
34234;SDS011;20500;49.856;20.290;2022-09-13T07:02:19;16.00;;;11.00;;
34234;SDS011;20500;49.856;20.290;2022-09-13T07:05:27;17.30;;;12.10;;
34234;SDS011;20500;49.856;20.290;2022-09-13T07:11:38;18.70;;;12.40;;
34234;SDS011;20500;49.856;20.290;2022-09-13T07:14:45;16.40;;;10.20;;
34234;SDS011;20500;49.856;20.290;2022-09-13T07:20:58;15.00;;;9.50;;
34234;SDS011;20500;49.856;20.290;2022-09-13T07:24:06;14.40;;;9.40;;
34234;SDS011;20500;49.856;20.290;2022-09-13T07:27:12;13.20;;;8.40;;
34234;SDS011;20500;49.856;20.290;2022-09-13T07:30:18;13.20;;;8.30;;
34234;SDS011;20500;49.856;20.290;2022-09-13T07:33:24;13.10;;;8.00;;
34234;SDS011;20500;49.856;20.290;2022-09-13T07:36:30;14.20;;;7.90;;
34234;SDS011;20500;49.856;20.290;2022-09-13T07:39:38;14.30;;;7.70;;
34234;SDS011;20500;49.856;20.290;2022-09-13T07:42:44;13.40;;;7.20;;
34234;SDS011;20500;49.856;20.290;2022-09-13T07:45:56;12.30;;;6.80;;
34234;SDS011;20500;49.856;20.290;2022-09-13T07:49:02;11.90;;;6.50;;
34234;SDS011;20500;49.856;20.290;2022-09-13T07:52:09;13.20;;;6.50;;
34234;SDS011;20500;49.856;20.290;2022-09-13T07:55:15;11.70;;;6.60;;
34234;SDS011;20500;49.856;20.290;2022-09-13T08:01:26;12.30;;;6.30;;
34234;SDS011;20500;49.856;20.290;2022-09-13T08:04:33;12.10;;;5.80;;
34234;SDS011;20500;49.856;20.290;2022-09-13T08:10:43;12.10;;;5.80;;
34234;SDS011;20500;49.856;20.290;2022-09-13T08:13:51;10.80;;;5.30;;
34234;SDS011;20500;49.856;20.290;2022-09-13T08:16:57;9.70;;;4.50;;
34234;SDS011;20500;49.856;20.290;2022-09-13T08:20:04;10.90;;;4.50;;
34234;SDS011;20500;49.856;20.290;2022-09-13T08:23:12;8.60;;;3.20;;
34234;SDS011;20500;49.856;20.290;2022-09-13T08:26:19;10.40;;;3.90;;
34234;SDS011;20500;49.856;20.290;2022-09-13T08:29:25;11.60;;;5.20;;
34234;SDS011;20500;49.856;20.290;2022-09-13T08:32:31;10.40;;;4.70;;
34234;SDS011;20500;49.856;20.290;2022-09-13T08:38:44;8.20;;;3.50;;
34234;SDS011;20500;49.856;20.290;2022-09-13T08:45:30;15.30;;;8.40;;
34234;SDS011;20500;49.856;20.290;2022-09-13T08:51:46;10.10;;;4.10;;
34234;SDS011;20500;49.856;20.290;2022-09-13T08:54:54;12.50;;;5.40;;
34234;SDS011;20500;49.856;20.290;2022-09-13T08:58:01;7.10;;;3.00;;
34234;SDS011;20500;49.856;20.290;2022-09-13T09:01:22;7.40;;;2.90;;
34234;SDS011;20500;49.856;20.290;2022-09-13T09:04:38;10.00;;;4.50;;
34234;SDS011;20500;49.856;20.290;2022-09-13T09:07:49;16.60;;;10.70;;
34234;SDS011;20500;49.856;20.290;2022-09-13T09:11:02;12.50;;;6.30;;
34234;SDS011;20500;49.856;20.290;2022-09-13T09:14:13;10.10;;;4.50;;
34234;SDS011;20500;49.856;20.290;2022-09-13T09:17:28;14.30;;;8.20;;
34234;SDS011;20500;49.856;20.290;2022-09-13T09:20:38;12.20;;;4.20;;
34234;SDS011;20500;49.856;20.290;2022-09-13T09:23:48;16.60;;;8.20;;
34234;SDS011;20500;49.856;20.290;2022-09-13T09:26:56;10.60;;;4.80;;
34234;SDS011;20500;49.856;20.290;2022-09-13T09:30:04;10.00;;;4.40;;
34234;SDS011;20500;49.856;20.290;2022-09-13T09:33:19;11.90;;;6.20;;
34234;SDS011;20500;49.856;20.290;2022-09-13T09:36:36;10.20;;;3.60;;
34234;SDS011;20500;49.856;20.290;2022-09-13T09:39:46;6.80;;;2.50;;
34234;SDS011;20500;49.856;20.290;2022-09-13T09:42:53;8.00;;;3.30;;
34234;SDS011;20500;49.856;20.290;2022-09-13T09:45:59;11.20;;;5.00;;
34234;SDS011;20500;49.856;20.290;2022-09-13T09:49:11;10.60;;;4.00;;
34234;SDS011;20500;49.856;20.290;2022-09-13T09:52:42;10.20;;;3.90;;
34234;SDS011;20500;49.856;20.290;2022-09-13T09:55:53;8.80;;;2.40;;
34234;SDS011;20500;49.856;20.290;2022-09-13T09:59:03;10.40;;;3.30;;
34234;SDS011;20500;49.856;20.290;2022-09-13T10:02:27;8.70;;;3.20;;
34234;SDS011;20500;49.856;20.290;2022-09-13T10:05:34;7.60;;;3.00;;
34234;SDS011;20500;49.856;20.290;2022-09-13T10:14:51;5.00;;;2.00;;
34234;SDS011;20500;49.856;20.290;2022-09-13T10:18:14;6.10;;;2.50;;
34234;SDS011;20500;49.856;20.290;2022-09-13T10:21:40;7.30;;;3.00;;
34234;SDS011;20500;49.856;20.290;2022-09-13T10:27:52;7.30;;;2.70;;
34234;SDS011;20500;49.856;20.290;2022-09-13T10:31:03;6.00;;;2.40;;
34234;SDS011;20500;49.856;20.290;2022-09-13T10:34:18;7.40;;;2.60;;
34234;SDS011;20500;49.856;20.290;2022-09-13T10:37:27;6.60;;;2.40;;
34234;SDS011;20500;49.856;20.290;2022-09-13T10:40:36;6.50;;;2.60;;
34234;SDS011;20500;49.856;20.290;2022-09-13T10:43:42;6.30;;;2.00;;
34234;SDS011;20500;49.856;20.290;2022-09-13T10:46:48;7.20;;;2.50;;
34234;SDS011;20500;49.856;20.290;2022-09-13T10:49:55;8.30;;;2.50;;
34234;SDS011;20500;49.856;20.290;2022-09-13T10:53:02;6.30;;;2.20;;
34234;SDS011;20500;49.856;20.290;2022-09-13T10:56:28;6.80;;;2.60;;
34234;SDS011;20500;49.856;20.290;2022-09-13T11:02:42;7.60;;;2.90;;
34234;SDS011;20500;49.856;20.290;2022-09-13T11:06:04;11.30;;;5.10;;
34234;SDS011;20500;49.856;20.290;2022-09-13T11:09:23;8.00;;;2.60;;
34234;SDS011;20500;49.856;20.290;2022-09-13T11:12:37;7.40;;;3.30;;
34234;SDS011;20500;49.856;20.290;2022-09-13T11:15:52;9.60;;;2.90;;
34234;SDS011;20500;49.856;20.290;2022-09-13T11:19:05;6.10;;;2.30;;
34234;SDS011;20500;49.856;20.290;2022-09-13T11:22:24;4.50;;;2.10;;
34234;SDS011;20500;49.856;20.290;2022-09-13T11:25:43;6.60;;;2.30;;
34234;SDS011;20500;49.856;20.290;2022-09-13T11:29:01;4.80;;;1.90;;
34234;SDS011;20500;49.856;20.290;2022-09-13T11:32:22;5.10;;;2.10;;
34234;SDS011;20500;49.856;20.290;2022-09-13T11:35:45;4.90;;;2.10;;
34234;SDS011;20500;49.856;20.290;2022-09-13T11:39:00;5.00;;;1.90;;
34234;SDS011;20500;49.856;20.290;2022-09-13T11:42:15;7.70;;;2.40;;
34234;SDS011;20500;49.856;20.290;2022-09-13T11:45:31;6.10;;;2.50;;
34234;SDS011;20500;49.856;20.290;2022-09-13T11:52:32;5.60;;;2.60;;
34234;SDS011;20500;49.856;20.290;2022-09-13T11:55:50;4.70;;;2.10;;
34234;SDS011;20500;49.856;20.290;2022-09-13T11:59:05;4.90;;;1.90;;
34234;SDS011;20500;49.856;20.290;2022-09-13T12:02:20;7.00;;;2.30;;
34234;SDS011;20500;49.856;20.290;2022-09-13T12:05:33;4.30;;;2.00;;
34234;SDS011;20500;49.856;20.290;2022-09-13T12:08:45;5.20;;;2.00;;
34234;SDS011;20500;49.856;20.290;2022-09-13T12:11:55;5.10;;;1.90;;
34234;SDS011;20500;49.856;20.290;2022-09-13T12:15:07;5.70;;;1.90;;
34234;SDS011;20500;49.856;20.290;2022-09-13T12:18:21;5.30;;;2.10;;
34234;SDS011;20500;49.856;20.290;2022-09-13T12:21:31;5.50;;;2.10;;
34234;SDS011;20500;49.856;20.290;2022-09-13T12:24:42;5.00;;;2.00;;
34234;SDS011;20500;49.856;20.290;2022-09-13T12:27:53;5.40;;;1.90;;
34234;SDS011;20500;49.856;20.290;2022-09-13T12:31:08;4.30;;;1.90;;
34234;SDS011;20500;49.856;20.290;2022-09-13T12:34:22;6.60;;;2.10;;
34234;SDS011;20500;49.856;20.290;2022-09-13T12:41:05;4.90;;;1.80;;
34234;SDS011;20500;49.856;20.290;2022-09-13T12:44:28;5.70;;;2.00;;
34234;SDS011;20500;49.856;20.290;2022-09-13T12:47:58;3.90;;;1.80;;
34234;SDS011;20500;49.856;20.290;2022-09-13T12:51:22;4.40;;;1.90;;
34234;SDS011;20500;49.856;20.290;2022-09-13T12:54:42;5.50;;;2.20;;
34234;SDS011;20500;49.856;20.290;2022-09-13T12:58:09;3.90;;;1.80;;
34234;SDS011;20500;49.856;20.290;2022-09-13T13:01:26;6.60;;;2.10;;
34234;SDS011;20500;49.856;20.290;2022-09-13T13:04:35;5.80;;;2.20;;
34234;SDS011;20500;49.856;20.290;2022-09-13T13:07:48;5.50;;;2.10;;
34234;SDS011;20500;49.856;20.290;2022-09-13T13:11:00;8.60;;;2.40;;
34234;SDS011;20500;49.856;20.290;2022-09-13T13:14:21;6.40;;;2.60;;
34234;SDS011;20500;49.856;20.290;2022-09-13T13:17:36;5.80;;;2.10;;
34234;SDS011;20500;49.856;20.290;2022-09-13T13:20:46;6.30;;;2.20;;
34234;SDS011;20500;49.856;20.290;2022-09-13T13:27:51;6.50;;;2.40;;
34234;SDS011;20500;49.856;20.290;2022-09-13T13:30:57;4.90;;;1.70;;
34234;SDS011;20500;49.856;20.290;2022-09-13T13:34:24;5.70;;;1.70;;
34234;SDS011;20500;49.856;20.290;2022-09-13T13:37:34;4.10;;;1.60;;
34234;SDS011;20500;49.856;20.290;2022-09-13T13:40:41;7.30;;;2.80;;
34234;SDS011;20500;49.856;20.290;2022-09-13T13:43:52;4.20;;;1.60;;
34234;SDS011;20500;49.856;20.290;2022-09-13T13:50:34;5.10;;;1.90;;
34234;SDS011;20500;49.856;20.290;2022-09-13T13:54:28;4.70;;;1.90;;
34234;SDS011;20500;49.856;20.290;2022-09-13T13:57:58;7.10;;;2.00;;
34234;SDS011;20500;49.856;20.290;2022-09-13T14:01:10;5.30;;;1.90;;
34234;SDS011;20500;49.856;20.290;2022-09-13T14:04:29;7.20;;;2.10;;
34234;SDS011;20500;49.856;20.290;2022-09-13T14:08:02;7.00;;;2.60;;
34234;SDS011;20500;49.856;20.290;2022-09-13T14:11:29;4.80;;;1.80;;
34234;SDS011;20500;49.856;20.290;2022-09-13T14:14:50;6.20;;;1.80;;
34234;SDS011;20500;49.856;20.290;2022-09-13T14:18:11;8.20;;;2.00;;
34234;SDS011;20500;49.856;20.290;2022-09-13T14:21:36;5.40;;;2.10;;
34234;SDS011;20500;49.856;20.290;2022-09-13T14:27:48;4.20;;;1.70;;
34234;SDS011;20500;49.856;20.290;2022-09-13T14:30:57;6.00;;;1.80;;
34234;SDS011;20500;49.856;20.290;2022-09-13T14:34:03;5.80;;;1.70;;
34234;SDS011;20500;49.856;20.290;2022-09-13T14:37:25;4.70;;;1.50;;
34234;SDS011;20500;49.856;20.290;2022-09-13T14:40:33;4.40;;;1.70;;
34234;SDS011;20500;49.856;20.290;2022-09-13T14:43:40;3.60;;;1.50;;
34234;SDS011;20500;49.856;20.290;2022-09-13T14:46:47;4.80;;;2.00;;
34234;SDS011;20500;49.856;20.290;2022-09-13T14:49:59;5.20;;;1.90;;
34234;SDS011;20500;49.856;20.290;2022-09-13T14:53:11;5.70;;;2.10;;
34234;SDS011;20500;49.856;20.290;2022-09-13T14:56:23;5.10;;;2.00;;
34234;SDS011;20500;49.856;20.290;2022-09-13T14:59:39;8.10;;;3.10;;
34234;SDS011;20500;49.856;20.290;2022-09-13T15:02:48;8.30;;;3.00;;
34234;SDS011;20500;49.856;20.290;2022-09-13T15:05:56;6.30;;;2.00;;
34234;SDS011;20500;49.856;20.290;2022-09-13T15:09:14;8.50;;;3.00;;
34234;SDS011;20500;49.856;20.290;2022-09-13T15:12:30;7.00;;;2.30;;
34234;SDS011;20500;49.856;20.290;2022-09-13T15:15:37;7.20;;;2.40;;
34234;SDS011;20500;49.856;20.290;2022-09-13T15:18:43;9.80;;;4.20;;
34234;SDS011;20500;49.856;20.290;2022-09-13T15:32:45;8.20;;;2.90;;
34234;SDS011;20500;49.856;20.290;2022-09-13T15:35:51;8.50;;;2.80;;
34234;SDS011;20500;49.856;20.290;2022-09-13T15:39:16;5.40;;;2.40;;
34234;SDS011;20500;49.856;20.290;2022-09-13T15:42:23;7.70;;;2.70;;
34234;SDS011;20500;49.856;20.290;2022-09-13T15:45:29;6.30;;;2.50;;
34234;SDS011;20500;49.856;20.290;2022-09-13T15:51:41;8.30;;;2.90;;
34234;SDS011;20500;49.856;20.290;2022-09-13T15:54:48;6.70;;;2.80;;
34234;SDS011;20500;49.856;20.290;2022-09-13T15:57:54;10.00;;;3.30;;
34234;SDS011;20500;49.856;20.290;2022-09-13T16:04:04;19.40;;;3.30;;
34234;SDS011;20500;49.856;20.290;2022-09-13T16:07:11;12.40;;;4.30;;
34234;SDS011;20500;49.856;20.290;2022-09-13T16:10:18;15.40;;;9.30;;
34234;SDS011;20500;49.856;20.290;2022-09-13T16:13:25;12.50;;;5.20;;
34234;SDS011;20500;49.856;20.290;2022-09-13T16:16:31;12.90;;;5.10;;
34234;SDS011;20500;49.856;20.290;2022-09-13T16:22:43;8.00;;;2.70;;
34234;SDS011;20500;49.856;20.290;2022-09-13T16:28:56;15.00;;;8.90;;
34234;SDS011;20500;49.856;20.290;2022-09-13T16:35:08;16.00;;;8.30;;
34234;SDS011;20500;49.856;20.290;2022-09-13T16:38:15;9.90;;;3.70;;
34234;SDS011;20500;49.856;20.290;2022-09-13T16:41:21;8.10;;;2.90;;
34234;SDS011;20500;49.856;20.290;2022-09-13T16:44:27;7.90;;;3.10;;
34234;SDS011;20500;49.856;20.290;2022-09-13T16:47:33;7.10;;;2.90;;
34234;SDS011;20500;49.856;20.290;2022-09-13T16:50:39;7.20;;;2.80;;
34234;SDS011;20500;49.856;20.290;2022-09-13T16:53:45;16.40;;;10.20;;
34234;SDS011;20500;49.856;20.290;2022-09-13T16:56:52;21.50;;;15.00;;
34234;SDS011;20500;49.856;20.290;2022-09-13T16:59:59;25.80;;;17.70;;
34234;SDS011;20500;49.856;20.290;2022-09-13T17:03:08;25.90;;;18.70;;
34234;SDS011;20500;49.856;20.290;2022-09-13T17:06:15;18.40;;;11.30;;
34234;SDS011;20500;49.856;20.290;2022-09-13T17:09:22;21.20;;;14.70;;
34234;SDS011;20500;49.856;20.290;2022-09-13T17:12:29;19.50;;;13.00;;
34234;SDS011;20500;49.856;20.290;2022-09-13T17:15:38;29.50;;;21.20;;
34234;SDS011;20500;49.856;20.290;2022-09-13T17:18:44;12.30;;;4.80;;
34234;SDS011;20500;49.856;20.290;2022-09-13T17:24:55;33.10;;;25.10;;
34234;SDS011;20500;49.856;20.290;2022-09-13T17:28:01;28.50;;;19.30;;
34234;SDS011;20500;49.856;20.290;2022-09-13T17:31:07;10.50;;;4.70;;
34234;SDS011;20500;49.856;20.290;2022-09-13T17:34:13;20.10;;;11.90;;
34234;SDS011;20500;49.856;20.290;2022-09-13T17:37:19;9.60;;;3.60;;
34234;SDS011;20500;49.856;20.290;2022-09-13T17:40:25;9.60;;;3.60;;
34234;SDS011;20500;49.856;20.290;2022-09-13T17:43:32;16.30;;;8.00;;
34234;SDS011;20500;49.856;20.290;2022-09-13T17:46:38;11.80;;;6.20;;
34234;SDS011;20500;49.856;20.290;2022-09-13T17:52:49;10.20;;;3.90;;
34234;SDS011;20500;49.856;20.290;2022-09-13T17:55:55;10.50;;;3.90;;
34234;SDS011;20500;49.856;20.290;2022-09-13T17:59:04;12.70;;;6.10;;
34234;SDS011;20500;49.856;20.290;2022-09-13T18:02:12;12.70;;;6.30;;
34234;SDS011;20500;49.856;20.290;2022-09-13T18:05:18;14.30;;;8.00;;
34234;SDS011;20500;49.856;20.290;2022-09-13T18:11:28;10.50;;;4.00;;
34234;SDS011;20500;49.856;20.290;2022-09-13T18:14:34;11.90;;;5.50;;
34234;SDS011;20500;49.856;20.290;2022-09-13T18:17:40;12.00;;;4.50;;
34234;SDS011;20500;49.856;20.290;2022-09-13T18:23:51;10.00;;;4.30;;
34234;SDS011;20500;49.856;20.290;2022-09-13T18:27:00;9.50;;;3.80;;
34234;SDS011;20500;49.856;20.290;2022-09-13T18:30:07;11.60;;;4.40;;
34234;SDS011;20500;49.856;20.290;2022-09-13T18:33:14;10.90;;;4.80;;
34234;SDS011;20500;49.856;20.290;2022-09-13T18:36:23;10.30;;;5.00;;
34234;SDS011;20500;49.856;20.290;2022-09-13T18:39:29;9.80;;;3.90;;
34234;SDS011;20500;49.856;20.290;2022-09-13T18:42:36;10.90;;;4.10;;
34234;SDS011;20500;49.856;20.290;2022-09-13T18:45:42;9.90;;;4.60;;
34234;SDS011;20500;49.856;20.290;2022-09-13T18:48:56;15.90;;;8.80;;
34234;SDS011;20500;49.856;20.290;2022-09-13T18:52:02;13.40;;;7.30;;
34234;SDS011;20500;49.856;20.290;2022-09-13T18:55:09;13.20;;;7.10;;
34234;SDS011;20500;49.856;20.290;2022-09-13T19:01:19;11.60;;;6.00;;
34234;SDS011;20500;49.856;20.290;2022-09-13T19:04:27;14.50;;;8.20;;
34234;SDS011;20500;49.856;20.290;2022-09-13T19:07:35;15.70;;;8.30;;
34234;SDS011;20500;49.856;20.290;2022-09-13T19:10:42;12.70;;;6.90;;
34234;SDS011;20500;49.856;20.290;2022-09-13T19:16:54;13.20;;;6.10;;
34234;SDS011;20500;49.856;20.290;2022-09-13T19:20:02;13.80;;;6.20;;
34234;SDS011;20500;49.856;20.290;2022-09-13T19:23:09;11.70;;;4.80;;
34234;SDS011;20500;49.856;20.290;2022-09-13T19:26:16;9.90;;;5.00;;
34234;SDS011;20500;49.856;20.290;2022-09-13T19:29:24;11.50;;;4.40;;
34234;SDS011;20500;49.856;20.290;2022-09-13T19:35:34;10.50;;;4.40;;
34234;SDS011;20500;49.856;20.290;2022-09-13T19:38:41;11.40;;;4.90;;
34234;SDS011;20500;49.856;20.290;2022-09-13T19:41:47;10.90;;;4.50;;
34234;SDS011;20500;49.856;20.290;2022-09-13T19:44:53;13.40;;;5.30;;
34234;SDS011;20500;49.856;20.290;2022-09-13T19:47:59;11.00;;;4.60;;
34234;SDS011;20500;49.856;20.290;2022-09-13T19:51:26;11.00;;;5.00;;
34234;SDS011;20500;49.856;20.290;2022-09-13T19:54:33;11.80;;;5.70;;
34234;SDS011;20500;49.856;20.290;2022-09-13T19:57:39;9.80;;;4.90;;
34234;SDS011;20500;49.856;20.290;2022-09-13T20:00:46;11.50;;;5.30;;
34234;SDS011;20500;49.856;20.290;2022-09-13T20:06:57;11.60;;;5.30;;
34234;SDS011;20500;49.856;20.290;2022-09-13T20:10:04;11.70;;;5.40;;
34234;SDS011;20500;49.856;20.290;2022-09-13T20:13:11;11.20;;;5.50;;
34234;SDS011;20500;49.856;20.290;2022-09-13T20:16:17;13.60;;;5.60;;
34234;SDS011;20500;49.856;20.290;2022-09-13T20:19:25;12.70;;;6.40;;
34234;SDS011;20500;49.856;20.290;2022-09-13T20:22:45;13.10;;;6.10;;
34234;SDS011;20500;49.856;20.290;2022-09-13T20:25:52;12.40;;;6.20;;
34234;SDS011;20500;49.856;20.290;2022-09-13T20:28:58;13.10;;;6.20;;
34234;SDS011;20500;49.856;20.290;2022-09-13T20:32:07;12.90;;;6.30;;
34234;SDS011;20500;49.856;20.290;2022-09-13T20:35:13;12.80;;;5.00;;
34234;SDS011;20500;49.856;20.290;2022-09-13T20:41:24;12.00;;;5.70;;
34234;SDS011;20500;49.856;20.290;2022-09-13T20:44:31;11.10;;;5.40;;
34234;SDS011;20500;49.856;20.290;2022-09-13T20:47:38;13.10;;;5.90;;